sensor_id;sensor_type;location;lat;lon;timestamp;P1;durP1;ratioP1;P2;durP2;ratioP2
44098;SDS011;29762;50.086;14.364;2023-04-26T00:04:06;7.75;;;3.50;;
44098;SDS011;29762;50.086;14.364;2023-04-26T00:09:27;6.75;;;3.38;;
44098;SDS011;29762;50.086;14.364;2023-04-26T00:14:46;7.03;;;3.53;;
44098;SDS011;29762;50.086;14.364;2023-04-26T00:20:06;8.93;;;3.20;;
44098;SDS011;29762;50.086;14.364;2023-04-26T00:25:28;8.32;;;3.60;;
44098;SDS011;29762;50.086;14.364;2023-04-26T00:30:47;6.13;;;2.90;;
44098;SDS011;29762;50.086;14.364;2023-04-26T00:36:07;5.88;;;3.17;;
44098;SDS011;29762;50.086;14.364;2023-04-26T00:41:26;7.00;;;3.30;;
44098;SDS011;29762;50.086;14.364;2023-04-26T00:46:46;7.15;;;3.22;;
44098;SDS011;29762;50.086;14.364;2023-04-26T00:52:05;7.97;;;3.00;;
44098;SDS011;29762;50.086;14.364;2023-04-26T00:57:25;5.90;;;2.80;;
44098;SDS011;29762;50.086;14.364;2023-04-26T01:02:46;5.63;;;2.85;;
44098;SDS011;29762;50.086;14.364;2023-04-26T01:08:06;8.35;;;3.60;;
44098;SDS011;29762;50.086;14.364;2023-04-26T01:13:25;6.63;;;2.75;;
44098;SDS011;29762;50.086;14.364;2023-04-26T01:18:52;6.60;;;3.05;;
44098;SDS011;29762;50.086;14.364;2023-04-26T01:24:12;5.18;;;2.50;;
44098;SDS011;29762;50.086;14.364;2023-04-26T01:29:32;6.15;;;2.90;;
44098;SDS011;29762;50.086;14.364;2023-04-26T01:34:52;6.70;;;2.80;;
44098;SDS011;29762;50.086;14.364;2023-04-26T01:40:11;4.35;;;2.50;;
44098;SDS011;29762;50.086;14.364;2023-04-26T01:45:31;7.07;;;2.97;;
44098;SDS011;29762;50.086;14.364;2023-04-26T01:51:13;5.13;;;2.65;;
44098;SDS011;29762;50.086;14.364;2023-04-26T01:56:33;5.40;;;2.60;;
44098;SDS011;29762;50.086;14.364;2023-04-26T02:01:53;6.15;;;2.50;;
44098;SDS011;29762;50.086;14.364;2023-04-26T02:07:13;5.72;;;2.45;;
44098;SDS011;29762;50.086;14.364;2023-04-26T02:12:38;4.00;;;2.17;;
44098;SDS011;29762;50.086;14.364;2023-04-26T02:17:57;4.65;;;2.28;;
44098;SDS011;29762;50.086;14.364;2023-04-26T02:23:17;5.15;;;2.30;;
44098;SDS011;29762;50.086;14.364;2023-04-26T02:28:36;3.30;;;2.00;;
44098;SDS011;29762;50.086;14.364;2023-04-26T02:33:56;4.68;;;2.22;;
44098;SDS011;29762;50.086;14.364;2023-04-26T02:39:15;4.63;;;2.33;;
44098;SDS011;29762;50.086;14.364;2023-04-26T02:44:35;4.45;;;2.40;;
44098;SDS011;29762;50.086;14.364;2023-04-26T02:49:56;3.88;;;2.03;;
44098;SDS011;29762;50.086;14.364;2023-04-26T02:55:15;3.88;;;2.10;;
44098;SDS011;29762;50.086;14.364;2023-04-26T03:00:35;3.58;;;2.20;;
44098;SDS011;29762;50.086;14.364;2023-04-26T03:05:55;3.92;;;2.20;;
44098;SDS011;29762;50.086;14.364;2023-04-26T03:11:15;3.97;;;1.98;;
44098;SDS011;29762;50.086;14.364;2023-04-26T03:16:43;4.30;;;2.05;;
44098;SDS011;29762;50.086;14.364;2023-04-26T03:22:03;4.43;;;2.15;;
44098;SDS011;29762;50.086;14.364;2023-04-26T03:27:25;2.95;;;1.88;;
44098;SDS011;29762;50.086;14.364;2023-04-26T03:32:45;4.05;;;2.08;;
44098;SDS011;29762;50.086;14.364;2023-04-26T03:38:04;4.07;;;2.05;;
44098;SDS011;29762;50.086;14.364;2023-04-26T03:43:24;4.53;;;2.20;;
44098;SDS011;29762;50.086;14.364;2023-04-26T03:48:44;2.97;;;1.70;;
44098;SDS011;29762;50.086;14.364;2023-04-26T03:54:04;4.40;;;1.88;;
44098;SDS011;29762;50.086;14.364;2023-04-26T03:59:24;3.90;;;1.88;;
44098;SDS011;29762;50.086;14.364;2023-04-26T04:04:44;3.45;;;1.90;;
44098;SDS011;29762;50.086;14.364;2023-04-26T04:10:04;3.05;;;1.70;;
44098;SDS011;29762;50.086;14.364;2023-04-26T04:15:24;4.90;;;2.08;;
44098;SDS011;29762;50.086;14.364;2023-04-26T04:20:46;3.72;;;1.80;;
44098;SDS011;29762;50.086;14.364;2023-04-26T04:26:06;2.10;;;1.50;;
44098;SDS011;29762;50.086;14.364;2023-04-26T04:31:27;2.95;;;1.63;;
44098;SDS011;29762;50.086;14.364;2023-04-26T04:36:47;2.08;;;1.20;;
44098;SDS011;29762;50.086;14.364;2023-04-26T04:42:07;3.08;;;1.70;;
44098;SDS011;29762;50.086;14.364;2023-04-26T04:47:26;2.65;;;1.60;;
44098;SDS011;29762;50.086;14.364;2023-04-26T04:52:46;1.95;;;1.40;;
44098;SDS011;29762;50.086;14.364;2023-04-26T04:58:05;2.55;;;1.60;;
44098;SDS011;29762;50.086;14.364;2023-04-26T05:03:26;2.97;;;1.67;;
44098;SDS011;29762;50.086;14.364;2023-04-26T05:08:46;2.10;;;1.40;;
44098;SDS011;29762;50.086;14.364;2023-04-26T05:14:06;2.10;;;1.30;;
44098;SDS011;29762;50.086;14.364;2023-04-26T05:19:26;1.67;;;1.35;;
44098;SDS011;29762;50.086;14.364;2023-04-26T05:24:46;2.88;;;1.65;;
44098;SDS011;29762;50.086;14.364;2023-04-26T05:30:07;2.08;;;1.35;;
44098;SDS011;29762;50.086;14.364;2023-04-26T05:35:39;2.17;;;1.45;;
44098;SDS011;29762;50.086;14.364;2023-04-26T05:40:59;2.10;;;1.40;;
44098;SDS011;29762;50.086;14.364;2023-04-26T05:46:18;2.38;;;1.40;;
44098;SDS011;29762;50.086;14.364;2023-04-26T05:51:38;1.65;;;1.48;;
44098;SDS011;29762;50.086;14.364;2023-04-26T05:56:58;1.50;;;1.25;;
44098;SDS011;29762;50.086;14.364;2023-04-26T06:02:18;3.00;;;1.40;;
44098;SDS011;29762;50.086;14.364;2023-04-26T06:07:38;2.05;;;1.30;;
44098;SDS011;29762;50.086;14.364;2023-04-26T06:12:58;3.33;;;1.40;;
44098;SDS011;29762;50.086;14.364;2023-04-26T06:18:20;2.00;;;1.50;;
44098;SDS011;29762;50.086;14.364;2023-04-26T06:23:40;2.58;;;1.58;;
44098;SDS011;29762;50.086;14.364;2023-04-26T06:28:59;2.40;;;1.30;;
44098;SDS011;29762;50.086;14.364;2023-04-26T06:34:19;2.92;;;1.77;;
44098;SDS011;29762;50.086;14.364;2023-04-26T06:39:40;1.30;;;1.08;;
44098;SDS011;29762;50.086;14.364;2023-04-26T06:44:59;1.35;;;1.10;;
44098;SDS011;29762;50.086;14.364;2023-04-26T06:50:19;3.63;;;1.38;;
44098;SDS011;29762;50.086;14.364;2023-04-26T06:55:39;2.60;;;1.30;;
44098;SDS011;29762;50.086;14.364;2023-04-26T07:00:58;2.97;;;1.27;;
44098;SDS011;29762;50.086;14.364;2023-04-26T07:06:17;1.88;;;1.15;;
44098;SDS011;29762;50.086;14.364;2023-04-26T07:11:37;1.98;;;1.20;;
44098;SDS011;29762;50.086;14.364;2023-04-26T07:16:57;1.83;;;1.33;;
44098;SDS011;29762;50.086;14.364;2023-04-26T07:22:16;1.98;;;1.10;;
44098;SDS011;29762;50.086;14.364;2023-04-26T07:27:36;1.70;;;1.08;;
44098;SDS011;29762;50.086;14.364;2023-04-26T07:32:55;1.60;;;1.08;;
44098;SDS011;29762;50.086;14.364;2023-04-26T07:38:14;2.22;;;1.20;;
44098;SDS011;29762;50.086;14.364;2023-04-26T07:43:37;1.60;;;1.15;;
44098;SDS011;29762;50.086;14.364;2023-04-26T07:48:57;2.17;;;1.23;;
44098;SDS011;29762;50.086;14.364;2023-04-26T07:54:17;3.55;;;1.15;;
44098;SDS011;29762;50.086;14.364;2023-04-26T07:59:36;2.50;;;1.25;;
44098;SDS011;29762;50.086;14.364;2023-04-26T08:04:56;2.97;;;1.02;;
44098;SDS011;29762;50.086;14.364;2023-04-26T08:10:15;6.65;;;1.25;;
44098;SDS011;29762;50.086;14.364;2023-04-26T08:15:35;2.45;;;1.10;;
44098;SDS011;29762;50.086;14.364;2023-04-26T08:20:55;3.65;;;1.23;;
44098;SDS011;29762;50.086;14.364;2023-04-26T08:26:14;1.88;;;1.08;;
44098;SDS011;29762;50.086;14.364;2023-04-26T08:31:33;2.28;;;1.10;;
44098;SDS011;29762;50.086;14.364;2023-04-26T08:36:54;2.17;;;1.17;;
44098;SDS011;29762;50.086;14.364;2023-04-26T08:42:14;4.50;;;1.10;;
44098;SDS011;29762;50.086;14.364;2023-04-26T08:47:46;2.85;;;0.98;;
44098;SDS011;29762;50.086;14.364;2023-04-26T08:53:07;2.33;;;1.00;;
44098;SDS011;29762;50.086;14.364;2023-04-26T08:58:26;1.55;;;1.13;;
44098;SDS011;29762;50.086;14.364;2023-04-26T09:03:46;3.03;;;1.10;;
44098;SDS011;29762;50.086;14.364;2023-04-26T09:09:07;2.25;;;1.15;;
44098;SDS011;29762;50.086;14.364;2023-04-26T09:14:27;2.97;;;0.98;;
44098;SDS011;29762;50.086;14.364;2023-04-26T09:19:47;2.60;;;1.00;;
44098;SDS011;29762;50.086;14.364;2023-04-26T09:25:07;2.40;;;1.15;;
44098;SDS011;29762;50.086;14.364;2023-04-26T09:30:27;2.03;;;1.10;;
44098;SDS011;29762;50.086;14.364;2023-04-26T09:35:47;3.13;;;1.10;;
44098;SDS011;29762;50.086;14.364;2023-04-26T09:41:06;2.35;;;1.10;;
44098;SDS011;29762;50.086;14.364;2023-04-26T09:46:26;1.65;;;1.20;;
44098;SDS011;29762;50.086;14.364;2023-04-26T09:51:58;1.63;;;0.80;;
44098;SDS011;29762;50.086;14.364;2023-04-26T09:57:18;1.80;;;1.00;;
44098;SDS011;29762;50.086;14.364;2023-04-26T10:02:40;3.30;;;1.00;;
44098;SDS011;29762;50.086;14.364;2023-04-26T10:07:59;3.80;;;1.40;;
44098;SDS011;29762;50.086;14.364;2023-04-26T10:13:21;3.75;;;1.30;;
44098;SDS011;29762;50.086;14.364;2023-04-26T10:18:41;5.63;;;1.23;;
44098;SDS011;29762;50.086;14.364;2023-04-26T10:24:01;1.45;;;1.20;;
44098;SDS011;29762;50.086;14.364;2023-04-26T10:29:21;3.67;;;1.23;;
44098;SDS011;29762;50.086;14.364;2023-04-26T10:34:42;3.72;;;1.17;;
44098;SDS011;29762;50.086;14.364;2023-04-26T10:45:50;2.42;;;1.08;;
44098;SDS011;29762;50.086;14.364;2023-04-26T10:51:10;3.58;;;1.15;;
44098;SDS011;29762;50.086;14.364;2023-04-26T11:01:59;1.70;;;1.00;;
44098;SDS011;29762;50.086;14.364;2023-04-26T11:07:34;40.35;;;28.27;;
44098;SDS011;29762;50.086;14.364;2023-04-26T11:13:02;35.67;;;23.85;;
44098;SDS011;29762;50.086;14.364;2023-04-26T11:18:22;24.23;;;14.10;;
44098;SDS011;29762;50.086;14.364;2023-04-26T11:23:41;22.50;;;15.15;;
44098;SDS011;29762;50.086;14.364;2023-04-26T11:29:02;28.73;;;14.85;;
44098;SDS011;29762;50.086;14.364;2023-04-26T11:39:52;16.67;;;10.50;;
44098;SDS011;29762;50.086;14.364;2023-04-26T11:45:13;14.63;;;9.00;;
44098;SDS011;29762;50.086;14.364;2023-04-26T11:50:35;13.88;;;9.02;;
44098;SDS011;29762;50.086;14.364;2023-04-26T11:55:55;13.52;;;9.05;;
44098;SDS011;29762;50.086;14.364;2023-04-26T12:06:47;11.85;;;7.40;;
44098;SDS011;29762;50.086;14.364;2023-04-26T12:12:07;8.32;;;4.18;;
44098;SDS011;29762;50.086;14.364;2023-04-26T12:17:27;7.55;;;5.28;;
44098;SDS011;29762;50.086;14.364;2023-04-26T12:22:59;12.82;;;5.53;;
44098;SDS011;29762;50.086;14.364;2023-04-26T12:37:29;10.18;;;3.85;;
44098;SDS011;29762;50.086;14.364;2023-04-26T12:42:49;5.90;;;2.97;;
44098;SDS011;29762;50.086;14.364;2023-04-26T12:48:09;6.45;;;3.00;;
44098;SDS011;29762;50.086;14.364;2023-04-26T12:53:30;8.63;;;2.42;;
44098;SDS011;29762;50.086;14.364;2023-04-26T12:58:49;2.95;;;1.75;;
44098;SDS011;29762;50.086;14.364;2023-04-26T13:04:08;3.75;;;2.15;;
44098;SDS011;29762;50.086;14.364;2023-04-26T13:09:28;4.78;;;2.70;;
44098;SDS011;29762;50.086;14.364;2023-04-26T13:14:48;4.88;;;2.08;;
44098;SDS011;29762;50.086;14.364;2023-04-26T13:20:07;3.55;;;2.30;;
44098;SDS011;29762;50.086;14.364;2023-04-26T13:25:27;7.55;;;2.25;;
44098;SDS011;29762;50.086;14.364;2023-04-26T13:30:46;4.18;;;2.05;;
44098;SDS011;29762;50.086;14.364;2023-04-26T13:36:06;3.67;;;1.90;;
44098;SDS011;29762;50.086;14.364;2023-04-26T13:41:26;3.58;;;1.63;;
44098;SDS011;29762;50.086;14.364;2023-04-26T13:46:47;4.72;;;1.58;;
44098;SDS011;29762;50.086;14.364;2023-04-26T13:52:06;6.07;;;1.75;;
44098;SDS011;29762;50.086;14.364;2023-04-26T13:57:26;3.85;;;1.58;;
44098;SDS011;29762;50.086;14.364;2023-04-26T14:02:45;3.00;;;1.17;;
44098;SDS011;29762;50.086;14.364;2023-04-26T14:08:04;2.80;;;1.25;;
44098;SDS011;29762;50.086;14.364;2023-04-26T14:13:24;2.90;;;1.45;;
44098;SDS011;29762;50.086;14.364;2023-04-26T14:18:43;3.38;;;1.02;;
44098;SDS011;29762;50.086;14.364;2023-04-26T14:24:03;1.27;;;0.82;;
44098;SDS011;29762;50.086;14.364;2023-04-26T14:29:23;3.28;;;1.15;;
44098;SDS011;29762;50.086;14.364;2023-04-26T14:34:43;4.85;;;1.30;;
44098;SDS011;29762;50.086;14.364;2023-04-26T14:40:02;2.25;;;1.20;;
44098;SDS011;29762;50.086;14.364;2023-04-26T14:45:23;2.67;;;1.20;;
44098;SDS011;29762;50.086;14.364;2023-04-26T14:50:42;5.18;;;1.42;;
44098;SDS011;29762;50.086;14.364;2023-04-26T14:56:01;2.85;;;1.23;;
44098;SDS011;29762;50.086;14.364;2023-04-26T15:01:21;4.50;;;1.00;;
44098;SDS011;29762;50.086;14.364;2023-04-26T15:06:41;2.03;;;1.27;;
44098;SDS011;29762;50.086;14.364;2023-04-26T15:12:00;2.72;;;1.15;;
44098;SDS011;29762;50.086;14.364;2023-04-26T15:17:22;5.50;;;1.70;;
44098;SDS011;29762;50.086;14.364;2023-04-26T15:22:42;2.72;;;0.90;;
44098;SDS011;29762;50.086;14.364;2023-04-26T15:28:02;4.68;;;1.20;;
44098;SDS011;29762;50.086;14.364;2023-04-26T15:33:22;3.83;;;0.90;;
44098;SDS011;29762;50.086;14.364;2023-04-26T15:38:41;4.55;;;1.38;;
44098;SDS011;29762;50.086;14.364;2023-04-26T15:44:03;0.77;;;0.60;;
44098;SDS011;29762;50.086;14.364;2023-04-26T15:49:23;3.53;;;1.20;;
44098;SDS011;29762;50.086;14.364;2023-04-26T15:54:43;8.77;;;1.45;;
44098;SDS011;29762;50.086;14.364;2023-04-26T16:00:03;6.10;;;1.13;;
44098;SDS011;29762;50.086;14.364;2023-04-26T16:05:27;2.85;;;1.15;;
44098;SDS011;29762;50.086;14.364;2023-04-26T16:10:47;5.47;;;1.10;;
44098;SDS011;29762;50.086;14.364;2023-04-26T16:16:07;3.97;;;1.10;;
44098;SDS011;29762;50.086;14.364;2023-04-26T16:21:29;8.63;;;1.20;;
44098;SDS011;29762;50.086;14.364;2023-04-26T16:26:49;2.80;;;0.88;;
44098;SDS011;29762;50.086;14.364;2023-04-26T16:32:08;2.08;;;1.08;;
44098;SDS011;29762;50.086;14.364;2023-04-26T16:37:29;2.65;;;1.08;;
44098;SDS011;29762;50.086;14.364;2023-04-26T16:42:48;4.75;;;1.10;;
44098;SDS011;29762;50.086;14.364;2023-04-26T16:48:08;4.30;;;1.20;;
44098;SDS011;29762;50.086;14.364;2023-04-26T16:53:27;4.18;;;1.08;;
44098;SDS011;29762;50.086;14.364;2023-04-26T16:58:47;3.03;;;1.40;;
44098;SDS011;29762;50.086;14.364;2023-04-26T17:04:07;3.10;;;1.10;;
44098;SDS011;29762;50.086;14.364;2023-04-26T17:09:26;3.85;;;1.20;;
44098;SDS011;29762;50.086;14.364;2023-04-26T17:14:46;2.10;;;0.73;;
44098;SDS011;29762;50.086;14.364;2023-04-26T17:20:05;4.43;;;1.60;;
44098;SDS011;29762;50.086;14.364;2023-04-26T17:25:26;5.07;;;1.20;;
44098;SDS011;29762;50.086;14.364;2023-04-26T17:30:46;5.35;;;1.20;;
44098;SDS011;29762;50.086;14.364;2023-04-26T17:36:05;2.47;;;0.85;;
44098;SDS011;29762;50.086;14.364;2023-04-26T17:41:26;0.90;;;0.80;;
44098;SDS011;29762;50.086;14.364;2023-04-26T17:46:47;2.70;;;1.20;;
44098;SDS011;29762;50.086;14.364;2023-04-26T17:52:06;1.67;;;1.10;;
44098;SDS011;29762;50.086;14.364;2023-04-26T17:57:25;0.98;;;0.90;;
44098;SDS011;29762;50.086;14.364;2023-04-26T18:02:45;2.20;;;1.20;;
44098;SDS011;29762;50.086;14.364;2023-04-26T18:08:05;2.83;;;1.02;;
44098;SDS011;29762;50.086;14.364;2023-04-26T18:13:25;2.22;;;1.08;;
44098;SDS011;29762;50.086;14.364;2023-04-26T18:18:44;3.10;;;1.00;;
44098;SDS011;29762;50.086;14.364;2023-04-26T18:24:04;2.40;;;0.90;;
44098;SDS011;29762;50.086;14.364;2023-04-26T18:29:24;3.15;;;1.05;;
44098;SDS011;29762;50.086;14.364;2023-04-26T18:34:43;1.58;;;1.02;;
44098;SDS011;29762;50.086;14.364;2023-04-26T18:40:03;2.83;;;0.95;;
44098;SDS011;29762;50.086;14.364;2023-04-26T18:45:24;5.35;;;0.95;;
44098;SDS011;29762;50.086;14.364;2023-04-26T18:50:50;2.45;;;1.10;;
44098;SDS011;29762;50.086;14.364;2023-04-26T18:56:11;2.17;;;1.00;;
44098;SDS011;29762;50.086;14.364;2023-04-26T19:01:31;4.25;;;1.10;;
44098;SDS011;29762;50.086;14.364;2023-04-26T19:06:50;3.95;;;1.23;;
44098;SDS011;29762;50.086;14.364;2023-04-26T19:12:10;1.45;;;1.00;;
44098;SDS011;29762;50.086;14.364;2023-04-26T19:17:29;2.60;;;1.30;;
44098;SDS011;29762;50.086;14.364;2023-04-26T19:22:51;5.35;;;1.20;;
44098;SDS011;29762;50.086;14.364;2023-04-26T19:28:11;1.38;;;0.98;;
44098;SDS011;29762;50.086;14.364;2023-04-26T19:33:30;3.83;;;1.20;;
44098;SDS011;29762;50.086;14.364;2023-04-26T19:38:50;5.55;;;1.52;;
44098;SDS011;29762;50.086;14.364;2023-04-26T19:44:09;8.93;;;1.20;;
44098;SDS011;29762;50.086;14.364;2023-04-26T19:49:30;2.35;;;1.00;;
44098;SDS011;29762;50.086;14.364;2023-04-26T19:54:51;3.63;;;1.00;;
44098;SDS011;29762;50.086;14.364;2023-04-26T20:00:12;3.53;;;1.20;;
44098;SDS011;29762;50.086;14.364;2023-04-26T20:05:33;2.50;;;1.10;;
44098;SDS011;29762;50.086;14.364;2023-04-26T20:10:53;2.92;;;1.10;;
44098;SDS011;29762;50.086;14.364;2023-04-26T20:16:12;2.08;;;1.15;;
44098;SDS011;29762;50.086;14.364;2023-04-26T20:21:32;3.47;;;1.17;;
44098;SDS011;29762;50.086;14.364;2023-04-26T20:26:51;2.70;;;1.08;;
44098;SDS011;29762;50.086;14.364;2023-04-26T20:32:10;3.80;;;1.30;;
44098;SDS011;29762;50.086;14.364;2023-04-26T20:37:30;2.10;;;1.10;;
44098;SDS011;29762;50.086;14.364;2023-04-26T20:42:50;2.40;;;1.10;;
44098;SDS011;29762;50.086;14.364;2023-04-26T20:48:09;5.32;;;1.20;;
44098;SDS011;29762;50.086;14.364;2023-04-26T20:53:29;2.17;;;1.30;;
44098;SDS011;29762;50.086;14.364;2023-04-26T20:58:49;2.90;;;1.30;;
44098;SDS011;29762;50.086;14.364;2023-04-26T21:04:09;2.78;;;1.10;;
44098;SDS011;29762;50.086;14.364;2023-04-26T21:09:28;2.55;;;1.25;;
44098;SDS011;29762;50.086;14.364;2023-04-26T21:14:47;3.83;;;1.42;;
44098;SDS011;29762;50.086;14.364;2023-04-26T21:20:07;3.90;;;1.35;;
44098;SDS011;29762;50.086;14.364;2023-04-26T21:25:27;3.47;;;1.33;;
44098;SDS011;29762;50.086;14.364;2023-04-26T21:30:46;2.30;;;1.27;;
44098;SDS011;29762;50.086;14.364;2023-04-26T21:36:06;3.58;;;1.15;;
44098;SDS011;29762;50.086;14.364;2023-04-26T21:41:26;3.50;;;1.15;;
44098;SDS011;29762;50.086;14.364;2023-04-26T21:46:45;2.88;;;1.00;;
44098;SDS011;29762;50.086;14.364;2023-04-26T21:52:05;1.75;;;1.17;;
44098;SDS011;29762;50.086;14.364;2023-04-26T21:57:24;1.60;;;1.10;;
44098;SDS011;29762;50.086;14.364;2023-04-26T22:02:43;5.43;;;1.30;;
44098;SDS011;29762;50.086;14.364;2023-04-26T22:08:03;2.85;;;1.20;;
44098;SDS011;29762;50.086;14.364;2023-04-26T22:13:23;2.53;;;1.25;;
44098;SDS011;29762;50.086;14.364;2023-04-26T22:18:43;1.65;;;0.98;;
44098;SDS011;29762;50.086;14.364;2023-04-26T22:24:02;2.42;;;1.10;;
44098;SDS011;29762;50.086;14.364;2023-04-26T22:29:22;1.85;;;1.05;;
44098;SDS011;29762;50.086;14.364;2023-04-26T22:34:41;1.90;;;1.10;;
44098;SDS011;29762;50.086;14.364;2023-04-26T22:40:01;1.85;;;1.10;;
44098;SDS011;29762;50.086;14.364;2023-04-26T22:45:22;1.75;;;1.10;;
44098;SDS011;29762;50.086;14.364;2023-04-26T22:50:41;3.10;;;1.00;;
44098;SDS011;29762;50.086;14.364;2023-04-26T22:56:01;1.58;;;1.08;;
44098;SDS011;29762;50.086;14.364;2023-04-26T23:01:20;2.78;;;1.15;;
44098;SDS011;29762;50.086;14.364;2023-04-26T23:06:40;1.40;;;1.13;;
44098;SDS011;29762;50.086;14.364;2023-04-26T23:12:00;2.03;;;1.20;;
44098;SDS011;29762;50.086;14.364;2023-04-26T23:17:22;2.47;;;1.20;;
44098;SDS011;29762;50.086;14.364;2023-04-26T23:22:43;1.83;;;0.93;;
44098;SDS011;29762;50.086;14.364;2023-04-26T23:28:03;1.65;;;1.30;;
44098;SDS011;29762;50.086;14.364;2023-04-26T23:33:22;1.58;;;1.10;;
44098;SDS011;29762;50.086;14.364;2023-04-26T23:38:43;1.45;;;1.00;;
44098;SDS011;29762;50.086;14.364;2023-04-26T23:44:02;1.15;;;0.90;;
44098;SDS011;29762;50.086;14.364;2023-04-26T23:49:22;3.20;;;1.15;;
44098;SDS011;29762;50.086;14.364;2023-04-26T23:54:42;1.90;;;1.00;;
